sensor_id;sensor_type;location;lat;lon;timestamp;P1;durP1;ratioP1;P2;durP2;ratioP2
16766;SDS011;8501;49.926;8.404;2023-03-01T00:01:08;27.67;;;13.47;;
16766;SDS011;8501;49.926;8.404;2023-03-01T00:03:35;24.33;;;13.27;;
16766;SDS011;8501;49.926;8.404;2023-03-01T00:06:01;29.07;;;14.33;;
16766;SDS011;8501;49.926;8.404;2023-03-01T00:08:28;28.93;;;13.87;;
16766;SDS011;8501;49.926;8.404;2023-03-01T00:13:47;24.60;;;11.80;;
16766;SDS011;8501;49.926;8.404;2023-03-01T00:16:15;25.70;;;13.13;;
16766;SDS011;8501;49.926;8.404;2023-03-01T00:18:46;25.43;;;12.90;;
16766;SDS011;8501;49.926;8.404;2023-03-01T00:21:12;26.73;;;12.63;;
16766;SDS011;8501;49.926;8.404;2023-03-01T00:23:38;25.17;;;12.37;;
16766;SDS011;8501;49.926;8.404;2023-03-01T00:26:12;24.37;;;12.30;;
16766;SDS011;8501;49.926;8.404;2023-03-01T00:28:38;25.20;;;12.50;;
16766;SDS011;8501;49.926;8.404;2023-03-01T00:31:04;21.47;;;11.83;;
16766;SDS011;8501;49.926;8.404;2023-03-01T00:33:31;23.33;;;12.70;;
16766;SDS011;8501;49.926;8.404;2023-03-01T00:35:59;23.20;;;12.40;;
16766;SDS011;8501;49.926;8.404;2023-03-01T00:38:25;21.87;;;11.27;;
16766;SDS011;8501;49.926;8.404;2023-03-01T00:40:51;22.10;;;12.07;;
16766;SDS011;8501;49.926;8.404;2023-03-01T00:43:17;22.10;;;11.97;;
16766;SDS011;8501;49.926;8.404;2023-03-01T00:45:42;24.97;;;12.57;;
16766;SDS011;8501;49.926;8.404;2023-03-01T00:48:08;23.70;;;12.03;;
16766;SDS011;8501;49.926;8.404;2023-03-01T00:50:33;24.20;;;12.53;;
16766;SDS011;8501;49.926;8.404;2023-03-01T00:52:59;22.80;;;12.10;;
16766;SDS011;8501;49.926;8.404;2023-03-01T00:55:25;22.40;;;11.80;;
16766;SDS011;8501;49.926;8.404;2023-03-01T00:57:51;21.90;;;12.17;;
16766;SDS011;8501;49.926;8.404;2023-03-01T01:00:16;22.73;;;12.03;;
16766;SDS011;8501;49.926;8.404;2023-03-01T01:02:44;26.50;;;13.30;;
16766;SDS011;8501;49.926;8.404;2023-03-01T01:05:10;22.40;;;12.47;;
16766;SDS011;8501;49.926;8.404;2023-03-01T01:07:35;23.30;;;11.70;;
16766;SDS011;8501;49.926;8.404;2023-03-01T01:10:01;27.70;;;13.17;;
16766;SDS011;8501;49.926;8.404;2023-03-01T01:12:27;25.03;;;12.23;;
16766;SDS011;8501;49.926;8.404;2023-03-01T01:14:52;24.73;;;12.07;;
16766;SDS011;8501;49.926;8.404;2023-03-01T01:17:18;21.90;;;11.87;;
16766;SDS011;8501;49.926;8.404;2023-03-01T01:19:44;28.83;;;12.80;;
16766;SDS011;8501;49.926;8.404;2023-03-01T01:22:09;24.73;;;13.77;;
16766;SDS011;8501;49.926;8.404;2023-03-01T01:24:35;23.53;;;12.33;;
16766;SDS011;8501;49.926;8.404;2023-03-01T01:27:00;26.40;;;12.17;;
16766;SDS011;8501;49.926;8.404;2023-03-01T01:29:26;24.23;;;12.53;;
16766;SDS011;8501;49.926;8.404;2023-03-01T01:31:51;22.23;;;12.80;;
16766;SDS011;8501;49.926;8.404;2023-03-01T01:34:18;23.03;;;12.63;;
16766;SDS011;8501;49.926;8.404;2023-03-01T01:36:49;23.77;;;12.43;;
16766;SDS011;8501;49.926;8.404;2023-03-01T01:39:18;24.27;;;13.13;;
16766;SDS011;8501;49.926;8.404;2023-03-01T01:41:43;24.93;;;12.53;;
16766;SDS011;8501;49.926;8.404;2023-03-01T01:44:22;26.13;;;12.73;;
16766;SDS011;8501;49.926;8.404;2023-03-01T01:46:53;28.50;;;13.03;;
16766;SDS011;8501;49.926;8.404;2023-03-01T01:49:27;24.87;;;12.53;;
16766;SDS011;8501;49.926;8.404;2023-03-01T01:52:00;24.37;;;12.70;;
16766;SDS011;8501;49.926;8.404;2023-03-01T01:54:53;25.07;;;12.60;;
16766;SDS011;8501;49.926;8.404;2023-03-01T01:57:37;24.73;;;11.97;;
16766;SDS011;8501;49.926;8.404;2023-03-01T02:00:07;24.50;;;12.87;;
16766;SDS011;8501;49.926;8.404;2023-03-01T02:02:56;22.50;;;12.47;;
16766;SDS011;8501;49.926;8.404;2023-03-01T02:08:16;25.47;;;13.50;;
16766;SDS011;8501;49.926;8.404;2023-03-01T02:10:45;25.17;;;12.80;;
16766;SDS011;8501;49.926;8.404;2023-03-01T02:13:12;24.03;;;12.03;;
16766;SDS011;8501;49.926;8.404;2023-03-01T02:15:39;21.20;;;12.13;;
16766;SDS011;8501;49.926;8.404;2023-03-01T02:18:06;23.83;;;12.77;;
16766;SDS011;8501;49.926;8.404;2023-03-01T02:23:03;25.07;;;12.73;;
16766;SDS011;8501;49.926;8.404;2023-03-01T02:25:44;26.93;;;12.90;;
16766;SDS011;8501;49.926;8.404;2023-03-01T02:30:42;25.30;;;12.70;;
16766;SDS011;8501;49.926;8.404;2023-03-01T02:33:30;23.60;;;12.97;;
16766;SDS011;8501;49.926;8.404;2023-03-01T02:35:58;24.03;;;13.27;;
16766;SDS011;8501;49.926;8.404;2023-03-01T02:38:26;26.27;;;13.37;;
16766;SDS011;8501;49.926;8.404;2023-03-01T02:40:52;27.60;;;13.00;;
16766;SDS011;8501;49.926;8.404;2023-03-01T02:43:19;24.70;;;13.23;;
16766;SDS011;8501;49.926;8.404;2023-03-01T02:45:49;26.40;;;13.57;;
16766;SDS011;8501;49.926;8.404;2023-03-01T02:48:18;27.93;;;13.17;;
16766;SDS011;8501;49.926;8.404;2023-03-01T02:50:52;30.90;;;15.20;;
16766;SDS011;8501;49.926;8.404;2023-03-01T02:56:06;26.07;;;13.97;;
16766;SDS011;8501;49.926;8.404;2023-03-01T02:58:37;31.30;;;14.00;;
16766;SDS011;8501;49.926;8.404;2023-03-01T03:01:10;25.13;;;13.50;;
16766;SDS011;8501;49.926;8.404;2023-03-01T03:03:41;24.73;;;12.80;;
16766;SDS011;8501;49.926;8.404;2023-03-01T03:06:07;24.93;;;12.87;;
16766;SDS011;8501;49.926;8.404;2023-03-01T03:08:33;24.40;;;13.10;;
16766;SDS011;8501;49.926;8.404;2023-03-01T03:10:58;24.77;;;13.67;;
16766;SDS011;8501;49.926;8.404;2023-03-01T03:13:24;25.67;;;13.90;;
16766;SDS011;8501;49.926;8.404;2023-03-01T03:15:54;24.33;;;12.67;;
16766;SDS011;8501;49.926;8.404;2023-03-01T03:18:23;26.90;;;13.17;;
16766;SDS011;8501;49.926;8.404;2023-03-01T03:20:51;26.27;;;13.17;;
16766;SDS011;8501;49.926;8.404;2023-03-01T03:23:18;26.27;;;13.47;;
16766;SDS011;8501;49.926;8.404;2023-03-01T03:25:47;24.03;;;13.27;;
16766;SDS011;8501;49.926;8.404;2023-03-01T03:28:16;24.30;;;13.40;;
16766;SDS011;8501;49.926;8.404;2023-03-01T03:30:42;26.70;;;13.73;;
16766;SDS011;8501;49.926;8.404;2023-03-01T03:33:08;28.93;;;13.33;;
16766;SDS011;8501;49.926;8.404;2023-03-01T03:35:40;24.03;;;13.17;;
16766;SDS011;8501;49.926;8.404;2023-03-01T03:38:08;27.10;;;13.93;;
16766;SDS011;8501;49.926;8.404;2023-03-01T03:40:41;28.60;;;13.77;;
16766;SDS011;8501;49.926;8.404;2023-03-01T03:43:27;24.97;;;13.03;;
16766;SDS011;8501;49.926;8.404;2023-03-01T03:45:54;26.27;;;13.90;;
16766;SDS011;8501;49.926;8.404;2023-03-01T03:48:21;25.83;;;13.37;;
16766;SDS011;8501;49.926;8.404;2023-03-01T03:50:51;28.37;;;13.53;;
16766;SDS011;8501;49.926;8.404;2023-03-01T03:53:18;26.03;;;13.37;;
16766;SDS011;8501;49.926;8.404;2023-03-01T03:55:44;24.57;;;13.87;;
16766;SDS011;8501;49.926;8.404;2023-03-01T03:58:10;29.07;;;14.33;;
16766;SDS011;8501;49.926;8.404;2023-03-01T04:00:40;28.57;;;13.53;;
16766;SDS011;8501;49.926;8.404;2023-03-01T04:03:07;26.43;;;13.80;;
16766;SDS011;8501;49.926;8.404;2023-03-01T04:05:34;29.20;;;14.33;;
16766;SDS011;8501;49.926;8.404;2023-03-01T04:08:01;28.43;;;13.57;;
16766;SDS011;8501;49.926;8.404;2023-03-01T04:10:26;26.77;;;13.33;;
16766;SDS011;8501;49.926;8.404;2023-03-01T04:12:54;26.37;;;13.37;;
16766;SDS011;8501;49.926;8.404;2023-03-01T04:15:23;27.47;;;14.70;;
16766;SDS011;8501;49.926;8.404;2023-03-01T04:17:51;30.00;;;15.23;;
16766;SDS011;8501;49.926;8.404;2023-03-01T04:20:18;28.10;;;14.40;;
16766;SDS011;8501;49.926;8.404;2023-03-01T04:22:58;30.90;;;14.60;;
16766;SDS011;8501;49.926;8.404;2023-03-01T04:25:35;34.93;;;16.70;;
16766;SDS011;8501;49.926;8.404;2023-03-01T04:28:04;33.60;;;15.90;;
16766;SDS011;8501;49.926;8.404;2023-03-01T04:30:30;32.30;;;14.97;;
16766;SDS011;8501;49.926;8.404;2023-03-01T04:33:00;31.30;;;15.00;;
16766;SDS011;8501;49.926;8.404;2023-03-01T04:35:27;28.93;;;14.03;;
16766;SDS011;8501;49.926;8.404;2023-03-01T04:37:52;27.70;;;14.17;;
16766;SDS011;8501;49.926;8.404;2023-03-01T04:40:18;26.33;;;13.77;;
16766;SDS011;8501;49.926;8.404;2023-03-01T04:42:43;31.73;;;14.70;;
16766;SDS011;8501;49.926;8.404;2023-03-01T04:45:09;29.93;;;15.27;;
16766;SDS011;8501;49.926;8.404;2023-03-01T04:47:41;30.07;;;15.40;;
16766;SDS011;8501;49.926;8.404;2023-03-01T04:50:08;27.50;;;14.60;;
16766;SDS011;8501;49.926;8.404;2023-03-01T04:52:34;29.80;;;14.60;;
16766;SDS011;8501;49.926;8.404;2023-03-01T04:55:00;30.67;;;14.17;;
16766;SDS011;8501;49.926;8.404;2023-03-01T04:57:26;29.40;;;14.53;;
16766;SDS011;8501;49.926;8.404;2023-03-01T04:59:51;31.87;;;15.37;;
16766;SDS011;8501;49.926;8.404;2023-03-01T05:02:17;27.63;;;14.53;;
16766;SDS011;8501;49.926;8.404;2023-03-01T05:04:43;31.67;;;15.77;;
16766;SDS011;8501;49.926;8.404;2023-03-01T05:07:08;31.27;;;14.83;;
16766;SDS011;8501;49.926;8.404;2023-03-01T05:09:34;29.73;;;14.90;;
16766;SDS011;8501;49.926;8.404;2023-03-01T05:11:59;28.73;;;14.37;;
16766;SDS011;8501;49.926;8.404;2023-03-01T05:14:25;29.73;;;14.57;;
16766;SDS011;8501;49.926;8.404;2023-03-01T05:16:50;30.23;;;15.03;;
16766;SDS011;8501;49.926;8.404;2023-03-01T05:19:16;31.47;;;14.60;;
16766;SDS011;8501;49.926;8.404;2023-03-01T05:21:47;28.70;;;14.67;;
16766;SDS011;8501;49.926;8.404;2023-03-01T05:24:34;30.63;;;15.03;;
16766;SDS011;8501;49.926;8.404;2023-03-01T05:27:01;28.90;;;14.47;;
16766;SDS011;8501;49.926;8.404;2023-03-01T05:29:28;31.37;;;15.10;;
16766;SDS011;8501;49.926;8.404;2023-03-01T05:31:56;31.93;;;15.87;;
16766;SDS011;8501;49.926;8.404;2023-03-01T05:34:24;35.80;;;15.53;;
16766;SDS011;8501;49.926;8.404;2023-03-01T05:36:51;31.47;;;15.53;;
16766;SDS011;8501;49.926;8.404;2023-03-01T05:39:18;30.90;;;15.20;;
16766;SDS011;8501;49.926;8.404;2023-03-01T05:41:46;27.03;;;14.63;;
16766;SDS011;8501;49.926;8.404;2023-03-01T05:44:11;33.93;;;16.00;;
16766;SDS011;8501;49.926;8.404;2023-03-01T05:46:37;33.50;;;15.73;;
16766;SDS011;8501;49.926;8.404;2023-03-01T05:49:02;31.53;;;16.00;;
16766;SDS011;8501;49.926;8.404;2023-03-01T05:51:29;29.70;;;15.40;;
16766;SDS011;8501;49.926;8.404;2023-03-01T05:53:54;33.57;;;15.70;;
16766;SDS011;8501;49.926;8.404;2023-03-01T05:56:20;27.13;;;14.40;;
16766;SDS011;8501;49.926;8.404;2023-03-01T05:58:47;31.07;;;15.70;;
16766;SDS011;8501;49.926;8.404;2023-03-01T06:01:14;29.83;;;15.77;;
16766;SDS011;8501;49.926;8.404;2023-03-01T06:03:40;32.70;;;15.13;;
16766;SDS011;8501;49.926;8.404;2023-03-01T06:06:05;33.13;;;15.33;;
16766;SDS011;8501;49.926;8.404;2023-03-01T06:08:31;31.00;;;15.00;;
16766;SDS011;8501;49.926;8.404;2023-03-01T06:10:56;31.17;;;15.23;;
16766;SDS011;8501;49.926;8.404;2023-03-01T06:13:22;32.43;;;15.97;;
16766;SDS011;8501;49.926;8.404;2023-03-01T06:15:48;34.27;;;16.10;;
16766;SDS011;8501;49.926;8.404;2023-03-01T06:18:14;30.67;;;16.30;;
16766;SDS011;8501;49.926;8.404;2023-03-01T06:20:39;32.57;;;15.60;;
16766;SDS011;8501;49.926;8.404;2023-03-01T06:23:05;33.67;;;16.80;;
16766;SDS011;8501;49.926;8.404;2023-03-01T06:25:30;31.33;;;15.77;;
16766;SDS011;8501;49.926;8.404;2023-03-01T06:27:57;29.77;;;14.67;;
16766;SDS011;8501;49.926;8.404;2023-03-01T06:30:23;32.47;;;15.87;;
16766;SDS011;8501;49.926;8.404;2023-03-01T06:32:50;34.93;;;16.00;;
16766;SDS011;8501;49.926;8.404;2023-03-01T06:35:16;32.23;;;15.83;;
16766;SDS011;8501;49.926;8.404;2023-03-01T06:37:43;30.50;;;14.93;;
16766;SDS011;8501;49.926;8.404;2023-03-01T06:40:09;31.50;;;16.27;;
16766;SDS011;8501;49.926;8.404;2023-03-01T06:42:36;27.13;;;14.37;;
16766;SDS011;8501;49.926;8.404;2023-03-01T06:45:06;32.70;;;16.43;;
16766;SDS011;8501;49.926;8.404;2023-03-01T06:47:32;33.40;;;15.73;;
16766;SDS011;8501;49.926;8.404;2023-03-01T06:49:58;33.70;;;15.97;;
16766;SDS011;8501;49.926;8.404;2023-03-01T06:52:25;30.77;;;14.87;;
16766;SDS011;8501;49.926;8.404;2023-03-01T06:54:50;30.70;;;15.70;;
16766;SDS011;8501;49.926;8.404;2023-03-01T06:57:17;30.60;;;15.67;;
16766;SDS011;8501;49.926;8.404;2023-03-01T06:59:43;30.47;;;15.57;;
16766;SDS011;8501;49.926;8.404;2023-03-01T07:02:12;32.67;;;15.97;;
16766;SDS011;8501;49.926;8.404;2023-03-01T07:04:39;31.77;;;15.00;;
16766;SDS011;8501;49.926;8.404;2023-03-01T07:07:04;31.10;;;14.60;;
16766;SDS011;8501;49.926;8.404;2023-03-01T07:09:30;29.63;;;15.60;;
16766;SDS011;8501;49.926;8.404;2023-03-01T07:11:56;32.10;;;15.00;;
16766;SDS011;8501;49.926;8.404;2023-03-01T07:14:22;29.93;;;15.60;;
16766;SDS011;8501;49.926;8.404;2023-03-01T07:16:49;31.67;;;15.77;;
16766;SDS011;8501;49.926;8.404;2023-03-01T07:19:15;29.73;;;15.17;;
16766;SDS011;8501;49.926;8.404;2023-03-01T07:21:40;33.60;;;15.93;;
16766;SDS011;8501;49.926;8.404;2023-03-01T07:24:06;31.03;;;16.00;;
16766;SDS011;8501;49.926;8.404;2023-03-01T07:26:32;28.30;;;14.53;;
16766;SDS011;8501;49.926;8.404;2023-03-01T07:28:59;32.40;;;16.00;;
16766;SDS011;8501;49.926;8.404;2023-03-01T07:31:28;31.70;;;15.67;;
16766;SDS011;8501;49.926;8.404;2023-03-01T07:33:54;28.87;;;14.57;;
16766;SDS011;8501;49.926;8.404;2023-03-01T07:36:20;30.73;;;15.40;;
16766;SDS011;8501;49.926;8.404;2023-03-01T07:38:46;32.53;;;15.63;;
16766;SDS011;8501;49.926;8.404;2023-03-01T07:41:12;32.87;;;15.57;;
16766;SDS011;8501;49.926;8.404;2023-03-01T07:43:38;26.40;;;15.40;;
16766;SDS011;8501;49.926;8.404;2023-03-01T07:46:03;29.17;;;15.03;;
16766;SDS011;8501;49.926;8.404;2023-03-01T07:48:29;30.37;;;15.20;;
16766;SDS011;8501;49.926;8.404;2023-03-01T07:51:00;30.30;;;15.00;;
16766;SDS011;8501;49.926;8.404;2023-03-01T07:53:27;30.97;;;14.67;;
16766;SDS011;8501;49.926;8.404;2023-03-01T07:56:09;34.57;;;15.97;;
16766;SDS011;8501;49.926;8.404;2023-03-01T07:58:37;32.83;;;14.93;;
16766;SDS011;8501;49.926;8.404;2023-03-01T08:01:04;31.83;;;15.47;;
16766;SDS011;8501;49.926;8.404;2023-03-01T08:03:31;32.73;;;15.73;;
16766;SDS011;8501;49.926;8.404;2023-03-01T08:06:00;32.67;;;15.67;;
16766;SDS011;8501;49.926;8.404;2023-03-01T08:08:27;32.23;;;16.37;;
16766;SDS011;8501;49.926;8.404;2023-03-01T08:10:52;30.17;;;15.17;;
16766;SDS011;8501;49.926;8.404;2023-03-01T08:13:22;27.90;;;14.73;;
16766;SDS011;8501;49.926;8.404;2023-03-01T08:15:48;32.70;;;16.13;;
16766;SDS011;8501;49.926;8.404;2023-03-01T08:18:14;31.10;;;15.40;;
16766;SDS011;8501;49.926;8.404;2023-03-01T08:20:41;28.77;;;15.77;;
16766;SDS011;8501;49.926;8.404;2023-03-01T08:23:06;32.77;;;16.23;;
16766;SDS011;8501;49.926;8.404;2023-03-01T08:25:32;32.47;;;14.83;;
16766;SDS011;8501;49.926;8.404;2023-03-01T08:27:58;34.83;;;15.90;;
16766;SDS011;8501;49.926;8.404;2023-03-01T08:30:23;33.53;;;15.77;;
16766;SDS011;8501;49.926;8.404;2023-03-01T08:32:49;30.77;;;15.07;;
16766;SDS011;8501;49.926;8.404;2023-03-01T08:35:15;29.90;;;15.40;;
16766;SDS011;8501;49.926;8.404;2023-03-01T08:37:41;31.20;;;15.83;;
16766;SDS011;8501;49.926;8.404;2023-03-01T08:40:07;29.37;;;15.70;;
16766;SDS011;8501;49.926;8.404;2023-03-01T08:42:35;29.80;;;14.40;;
16766;SDS011;8501;49.926;8.404;2023-03-01T08:45:01;32.70;;;16.27;;
16766;SDS011;8501;49.926;8.404;2023-03-01T08:47:27;28.97;;;15.87;;
16766;SDS011;8501;49.926;8.404;2023-03-01T08:49:52;33.33;;;16.20;;
16766;SDS011;8501;49.926;8.404;2023-03-01T08:52:19;32.93;;;16.23;;
16766;SDS011;8501;49.926;8.404;2023-03-01T08:54:46;28.73;;;15.50;;
16766;SDS011;8501;49.926;8.404;2023-03-01T08:57:12;29.30;;;14.67;;
16766;SDS011;8501;49.926;8.404;2023-03-01T08:59:38;30.53;;;15.23;;
16766;SDS011;8501;49.926;8.404;2023-03-01T09:02:05;29.43;;;15.30;;
16766;SDS011;8501;49.926;8.404;2023-03-01T09:04:36;29.07;;;15.00;;
16766;SDS011;8501;49.926;8.404;2023-03-01T09:07:01;30.80;;;14.73;;
16766;SDS011;8501;49.926;8.404;2023-03-01T09:09:27;29.73;;;15.40;;
16766;SDS011;8501;49.926;8.404;2023-03-01T09:11:52;31.50;;;15.50;;
16766;SDS011;8501;49.926;8.404;2023-03-01T09:14:18;29.60;;;14.67;;
16766;SDS011;8501;49.926;8.404;2023-03-01T09:16:43;30.93;;;16.30;;
16766;SDS011;8501;49.926;8.404;2023-03-01T09:19:09;29.90;;;15.80;;
16766;SDS011;8501;49.926;8.404;2023-03-01T09:21:36;30.00;;;15.77;;
16766;SDS011;8501;49.926;8.404;2023-03-01T09:24:02;33.37;;;16.40;;
16766;SDS011;8501;49.926;8.404;2023-03-01T09:26:28;31.07;;;15.80;;
16766;SDS011;8501;49.926;8.404;2023-03-01T09:28:54;30.97;;;15.17;;
16766;SDS011;8501;49.926;8.404;2023-03-01T09:31:21;30.67;;;14.97;;
16766;SDS011;8501;49.926;8.404;2023-03-01T09:33:48;32.10;;;15.67;;
16766;SDS011;8501;49.926;8.404;2023-03-01T09:36:16;32.57;;;15.90;;
16766;SDS011;8501;49.926;8.404;2023-03-01T09:38:47;30.50;;;15.97;;
16766;SDS011;8501;49.926;8.404;2023-03-01T09:44:01;30.03;;;15.53;;
16766;SDS011;8501;49.926;8.404;2023-03-01T09:46:37;30.47;;;15.33;;
16766;SDS011;8501;49.926;8.404;2023-03-01T09:49:20;30.97;;;16.23;;
16766;SDS011;8501;49.926;8.404;2023-03-01T09:51:54;28.53;;;15.23;;
16766;SDS011;8501;49.926;8.404;2023-03-01T09:54:31;30.40;;;16.07;;
16766;SDS011;8501;49.926;8.404;2023-03-01T09:56:59;32.00;;;16.80;;
16766;SDS011;8501;49.926;8.404;2023-03-01T10:10:48;31.30;;;17.07;;
16766;SDS011;8501;49.926;8.404;2023-03-01T10:13:16;51.50;;;27.73;;
16766;SDS011;8501;49.926;8.404;2023-03-01T10:16:06;33.23;;;18.63;;
16766;SDS011;8501;49.926;8.404;2023-03-01T10:18:38;33.83;;;17.70;;
16766;SDS011;8501;49.926;8.404;2023-03-01T10:21:13;32.13;;;16.43;;
16766;SDS011;8501;49.926;8.404;2023-03-01T10:23:41;28.60;;;16.03;;
16766;SDS011;8501;49.926;8.404;2023-03-01T10:29:04;28.50;;;15.37;;
16766;SDS011;8501;49.926;8.404;2023-03-01T10:34:11;30.70;;;16.23;;
16766;SDS011;8501;49.926;8.404;2023-03-01T10:36:39;25.13;;;14.27;;
16766;SDS011;8501;49.926;8.404;2023-03-01T10:39:14;28.23;;;15.63;;
16766;SDS011;8501;49.926;8.404;2023-03-01T10:41:51;32.00;;;15.87;;
16766;SDS011;8501;49.926;8.404;2023-03-01T10:47:20;31.53;;;16.33;;
16766;SDS011;8501;49.926;8.404;2023-03-01T10:49:57;29.30;;;16.20;;
16766;SDS011;8501;49.926;8.404;2023-03-01T10:52:26;29.37;;;16.00;;
16766;SDS011;8501;49.926;8.404;2023-03-01T10:55:24;28.10;;;16.20;;
16766;SDS011;8501;49.926;8.404;2023-03-01T11:00:52;28.83;;;15.93;;
16766;SDS011;8501;49.926;8.404;2023-03-01T11:03:33;28.73;;;15.13;;
16766;SDS011;8501;49.926;8.404;2023-03-01T11:06:01;32.63;;;17.17;;
16766;SDS011;8501;49.926;8.404;2023-03-01T11:08:45;27.83;;;15.87;;
16766;SDS011;8501;49.926;8.404;2023-03-01T11:13:38;29.87;;;15.97;;
16766;SDS011;8501;49.926;8.404;2023-03-01T11:16:28;27.80;;;15.90;;
16766;SDS011;8501;49.926;8.404;2023-03-01T11:21:35;29.47;;;15.70;;
16766;SDS011;8501;49.926;8.404;2023-03-01T11:24:06;26.47;;;15.20;;
16766;SDS011;8501;49.926;8.404;2023-03-01T11:26:37;29.73;;;15.40;;
16766;SDS011;8501;49.926;8.404;2023-03-01T11:32:08;27.97;;;15.50;;
16766;SDS011;8501;49.926;8.404;2023-03-01T11:37:11;27.10;;;14.87;;
16766;SDS011;8501;49.926;8.404;2023-03-01T11:45:30;31.40;;;16.57;;
16766;SDS011;8501;49.926;8.404;2023-03-01T11:51:05;31.00;;;16.07;;
16766;SDS011;8501;49.926;8.404;2023-03-01T11:53:44;26.87;;;15.83;;
16766;SDS011;8501;49.926;8.404;2023-03-01T11:56:21;28.80;;;15.57;;
16766;SDS011;8501;49.926;8.404;2023-03-01T11:59:13;25.57;;;14.60;;
16766;SDS011;8501;49.926;8.404;2023-03-01T12:31:30;24.40;;;14.53;;
16766;SDS011;8501;49.926;8.404;2023-03-01T12:37:00;24.70;;;13.73;;
16766;SDS011;8501;49.926;8.404;2023-03-01T12:39:48;23.23;;;13.83;;
16766;SDS011;8501;49.926;8.404;2023-03-01T12:45:16;22.93;;;13.43;;
16766;SDS011;8501;49.926;8.404;2023-03-01T12:48:45;22.93;;;12.97;;
16766;SDS011;8501;49.926;8.404;2023-03-01T12:50:53;22.17;;;13.47;;
16766;SDS011;8501;49.926;8.404;2023-03-01T12:53:24;24.07;;;13.03;;
16766;SDS011;8501;49.926;8.404;2023-03-01T12:55:53;24.50;;;13.40;;
16766;SDS011;8501;49.926;8.404;2023-03-01T12:58:31;23.03;;;13.30;;
16766;SDS011;8501;49.926;8.404;2023-03-01T13:01:05;24.30;;;13.27;;
16766;SDS011;8501;49.926;8.404;2023-03-01T13:04:03;21.77;;;12.80;;
16766;SDS011;8501;49.926;8.404;2023-03-01T13:17:47;20.77;;;11.60;;
16766;SDS011;8501;49.926;8.404;2023-03-01T13:20:15;22.50;;;12.40;;
16766;SDS011;8501;49.926;8.404;2023-03-01T13:22:43;23.13;;;12.37;;
16766;SDS011;8501;49.926;8.404;2023-03-01T13:25:15;20.67;;;12.37;;
16766;SDS011;8501;49.926;8.404;2023-03-01T13:27:43;23.43;;;12.30;;
16766;SDS011;8501;49.926;8.404;2023-03-01T13:35:52;19.80;;;12.83;;
16766;SDS011;8501;49.926;8.404;2023-03-01T13:41:09;20.40;;;11.90;;
16766;SDS011;8501;49.926;8.404;2023-03-01T13:43:35;25.97;;;12.77;;
16766;SDS011;8501;49.926;8.404;2023-03-01T13:46:07;22.40;;;12.07;;
16766;SDS011;8501;49.926;8.404;2023-03-01T13:48:54;20.17;;;12.00;;
16766;SDS011;8501;49.926;8.404;2023-03-01T13:51:23;20.87;;;11.53;;
16766;SDS011;8501;49.926;8.404;2023-03-01T13:53:52;18.53;;;11.40;;
16766;SDS011;8501;49.926;8.404;2023-03-01T13:56:27;16.33;;;10.70;;
16766;SDS011;8501;49.926;8.404;2023-03-01T13:58:59;17.07;;;10.17;;
16766;SDS011;8501;49.926;8.404;2023-03-01T14:01:29;17.77;;;11.03;;
16766;SDS011;8501;49.926;8.404;2023-03-01T14:03:56;19.03;;;11.30;;
16766;SDS011;8501;49.926;8.404;2023-03-01T14:06:26;20.47;;;11.83;;
16766;SDS011;8501;49.926;8.404;2023-03-01T14:09:01;19.17;;;11.27;;
16766;SDS011;8501;49.926;8.404;2023-03-01T14:15:02;18.17;;;10.70;;
16766;SDS011;8501;49.926;8.404;2023-03-01T14:17:49;19.73;;;10.93;;
16766;SDS011;8501;49.926;8.404;2023-03-01T14:20:27;19.93;;;11.37;;
16766;SDS011;8501;49.926;8.404;2023-03-01T14:23:01;20.10;;;11.53;;
16766;SDS011;8501;49.926;8.404;2023-03-01T14:25:34;22.07;;;11.30;;
16766;SDS011;8501;49.926;8.404;2023-03-01T14:28:15;19.13;;;10.70;;
16766;SDS011;8501;49.926;8.404;2023-03-01T14:30:50;17.73;;;11.30;;
16766;SDS011;8501;49.926;8.404;2023-03-01T14:33:18;18.03;;;11.63;;
16766;SDS011;8501;49.926;8.404;2023-03-01T14:36:04;18.10;;;11.10;;
16766;SDS011;8501;49.926;8.404;2023-03-01T14:41:02;16.63;;;11.27;;
16766;SDS011;8501;49.926;8.404;2023-03-01T14:43:41;18.03;;;11.70;;
16766;SDS011;8501;49.926;8.404;2023-03-01T14:46:25;16.73;;;10.90;;
16766;SDS011;8501;49.926;8.404;2023-03-01T14:48:56;17.40;;;11.37;;
16766;SDS011;8501;49.926;8.404;2023-03-01T14:51:27;17.03;;;11.60;;
16766;SDS011;8501;49.926;8.404;2023-03-01T14:53:53;15.80;;;11.20;;
16766;SDS011;8501;49.926;8.404;2023-03-01T14:56:19;17.57;;;11.90;;
16766;SDS011;8501;49.926;8.404;2023-03-01T14:58:45;17.63;;;11.70;;
16766;SDS011;8501;49.926;8.404;2023-03-01T15:01:15;17.60;;;12.23;;
16766;SDS011;8501;49.926;8.404;2023-03-01T15:03:43;16.37;;;11.77;;
16766;SDS011;8501;49.926;8.404;2023-03-01T15:06:11;18.10;;;11.77;;
16766;SDS011;8501;49.926;8.404;2023-03-01T15:08:47;19.07;;;12.60;;
16766;SDS011;8501;49.926;8.404;2023-03-01T15:11:22;16.57;;;12.00;;
16766;SDS011;8501;49.926;8.404;2023-03-01T15:13:52;18.93;;;11.57;;
16766;SDS011;8501;49.926;8.404;2023-03-01T15:16:19;15.37;;;11.77;;
16766;SDS011;8501;49.926;8.404;2023-03-01T15:18:49;16.97;;;11.70;;
16766;SDS011;8501;49.926;8.404;2023-03-01T15:21:25;18.13;;;11.80;;
16766;SDS011;8501;49.926;8.404;2023-03-01T15:24:00;19.73;;;11.97;;
16766;SDS011;8501;49.926;8.404;2023-03-01T15:26:31;18.43;;;12.20;;
16766;SDS011;8501;49.926;8.404;2023-03-01T15:29:01;19.03;;;12.10;;
16766;SDS011;8501;49.926;8.404;2023-03-01T15:31:28;20.83;;;11.57;;
16766;SDS011;8501;49.926;8.404;2023-03-01T15:36:47;22.30;;;15.70;;
16766;SDS011;8501;49.926;8.404;2023-03-01T15:42:05;18.30;;;11.80;;
16766;SDS011;8501;49.926;8.404;2023-03-01T15:44:35;20.60;;;11.80;;
16766;SDS011;8501;49.926;8.404;2023-03-01T15:47:05;18.77;;;12.00;;
16766;SDS011;8501;49.926;8.404;2023-03-01T15:49:47;17.90;;;11.00;;
16766;SDS011;8501;49.926;8.404;2023-03-01T15:52:13;18.03;;;11.93;;
16766;SDS011;8501;49.926;8.404;2023-03-01T15:54:53;18.87;;;11.10;;
16766;SDS011;8501;49.926;8.404;2023-03-01T15:57:26;18.43;;;11.27;;
16766;SDS011;8501;49.926;8.404;2023-03-01T15:59:51;20.40;;;11.03;;
16766;SDS011;8501;49.926;8.404;2023-03-01T16:02:17;20.03;;;11.27;;
16766;SDS011;8501;49.926;8.404;2023-03-01T16:04:45;19.47;;;11.97;;
16766;SDS011;8501;49.926;8.404;2023-03-01T16:07:11;20.83;;;10.77;;
16766;SDS011;8501;49.926;8.404;2023-03-01T16:09:37;18.10;;;10.90;;
16766;SDS011;8501;49.926;8.404;2023-03-01T16:12:03;20.37;;;10.77;;
16766;SDS011;8501;49.926;8.404;2023-03-01T16:14:28;18.97;;;11.10;;
16766;SDS011;8501;49.926;8.404;2023-03-01T16:16:54;18.60;;;11.17;;
16766;SDS011;8501;49.926;8.404;2023-03-01T16:19:20;18.90;;;10.30;;
16766;SDS011;8501;49.926;8.404;2023-03-01T16:21:49;19.10;;;11.30;;
16766;SDS011;8501;49.926;8.404;2023-03-01T16:24:14;21.77;;;11.63;;
16766;SDS011;8501;49.926;8.404;2023-03-01T16:26:40;21.30;;;11.60;;
16766;SDS011;8501;49.926;8.404;2023-03-01T16:29:07;18.63;;;11.47;;
16766;SDS011;8501;49.926;8.404;2023-03-01T16:31:33;20.10;;;11.50;;
16766;SDS011;8501;49.926;8.404;2023-03-01T16:33:58;18.73;;;11.40;;
16766;SDS011;8501;49.926;8.404;2023-03-01T16:36:25;20.43;;;11.27;;
16766;SDS011;8501;49.926;8.404;2023-03-01T16:38:53;20.80;;;11.60;;
16766;SDS011;8501;49.926;8.404;2023-03-01T16:41:20;20.23;;;11.03;;
16766;SDS011;8501;49.926;8.404;2023-03-01T16:43:47;18.63;;;10.57;;
16766;SDS011;8501;49.926;8.404;2023-03-01T16:46:15;20.00;;;11.30;;
16766;SDS011;8501;49.926;8.404;2023-03-01T16:48:43;19.03;;;10.70;;
16766;SDS011;8501;49.926;8.404;2023-03-01T16:51:09;19.60;;;11.50;;